sensor_id;sensor_type;location;lat;lon;timestamp;P1;durP1;ratioP1;P2;durP2;ratioP2
39188;SDS011;24915;50.858;4.376;2022-07-04T00:00:07;5.07;;;1.90;;
39188;SDS011;24915;50.858;4.376;2022-07-04T00:02:37;5.13;;;2.20;;
39188;SDS011;24915;50.858;4.376;2022-07-04T00:05:05;5.45;;;2.75;;
39188;SDS011;24915;50.858;4.376;2022-07-04T00:07:35;6.10;;;2.38;;
39188;SDS011;24915;50.858;4.376;2022-07-04T00:10:02;6.63;;;2.67;;
39188;SDS011;24915;50.858;4.376;2022-07-04T00:12:29;9.10;;;3.40;;
39188;SDS011;24915;50.858;4.376;2022-07-04T00:14:55;7.25;;;2.88;;
39188;SDS011;24915;50.858;4.376;2022-07-04T00:17:20;11.55;;;3.20;;
39188;SDS011;24915;50.858;4.376;2022-07-04T00:19:46;10.38;;;3.45;;
39188;SDS011;24915;50.858;4.376;2022-07-04T00:22:11;10.05;;;3.47;;
39188;SDS011;24915;50.858;4.376;2022-07-04T00:24:37;7.63;;;3.00;;
39188;SDS011;24915;50.858;4.376;2022-07-04T00:27:03;7.65;;;2.92;;
39188;SDS011;24915;50.858;4.376;2022-07-04T00:29:29;8.93;;;2.65;;
39188;SDS011;24915;50.858;4.376;2022-07-04T00:31:54;6.10;;;2.60;;
39188;SDS011;24915;50.858;4.376;2022-07-04T00:34:20;5.15;;;2.50;;
39188;SDS011;24915;50.858;4.376;2022-07-04T00:36:46;9.32;;;2.90;;
39188;SDS011;24915;50.858;4.376;2022-07-04T00:39:11;5.55;;;2.47;;
39188;SDS011;24915;50.858;4.376;2022-07-04T00:41:37;9.95;;;2.65;;
39188;SDS011;24915;50.858;4.376;2022-07-04T00:44:04;4.38;;;2.10;;
39188;SDS011;24915;50.858;4.376;2022-07-04T00:46:31;6.93;;;2.38;;
39188;SDS011;24915;50.858;4.376;2022-07-04T00:48:57;7.32;;;2.35;;
39188;SDS011;24915;50.858;4.376;2022-07-04T00:51:23;6.55;;;2.60;;
39188;SDS011;24915;50.858;4.376;2022-07-04T00:53:51;3.40;;;2.03;;
39188;SDS011;24915;50.858;4.376;2022-07-04T00:56:19;4.25;;;2.15;;
39188;SDS011;24915;50.858;4.376;2022-07-04T00:58:45;7.88;;;2.20;;
39188;SDS011;24915;50.858;4.376;2022-07-04T01:01:11;8.02;;;2.50;;
39188;SDS011;24915;50.858;4.376;2022-07-04T01:03:37;9.07;;;2.40;;
39188;SDS011;24915;50.858;4.376;2022-07-04T01:06:02;12.20;;;3.03;;
39188;SDS011;24915;50.858;4.376;2022-07-04T01:08:29;6.57;;;2.40;;
39188;SDS011;24915;50.858;4.376;2022-07-04T01:10:54;7.13;;;2.78;;
39188;SDS011;24915;50.858;4.376;2022-07-04T01:13:20;7.55;;;2.45;;
39188;SDS011;24915;50.858;4.376;2022-07-04T01:15:47;6.18;;;2.33;;
39188;SDS011;24915;50.858;4.376;2022-07-04T01:18:14;3.97;;;1.83;;
39188;SDS011;24915;50.858;4.376;2022-07-04T01:20:39;3.95;;;1.95;;
39188;SDS011;24915;50.858;4.376;2022-07-04T01:23:05;9.02;;;2.30;;
39188;SDS011;24915;50.858;4.376;2022-07-04T01:25:31;7.55;;;2.00;;
39188;SDS011;24915;50.858;4.376;2022-07-04T01:28:01;8.63;;;2.15;;
39188;SDS011;24915;50.858;4.376;2022-07-04T01:30:28;4.88;;;2.35;;
39188;SDS011;24915;50.858;4.376;2022-07-04T01:32:54;8.18;;;2.40;;
39188;SDS011;24915;50.858;4.376;2022-07-04T01:35:21;3.42;;;2.20;;
39188;SDS011;24915;50.858;4.376;2022-07-04T01:37:47;8.68;;;2.03;;
39188;SDS011;24915;50.858;4.376;2022-07-04T01:40:13;8.27;;;2.20;;
39188;SDS011;24915;50.858;4.376;2022-07-04T01:42:40;8.07;;;1.80;;
39188;SDS011;24915;50.858;4.376;2022-07-04T01:45:05;5.70;;;2.25;;
39188;SDS011;24915;50.858;4.376;2022-07-04T01:47:32;6.28;;;1.83;;
39188;SDS011;24915;50.858;4.376;2022-07-04T01:49:58;8.15;;;2.10;;
39188;SDS011;24915;50.858;4.376;2022-07-04T01:52:24;6.72;;;2.20;;
39188;SDS011;24915;50.858;4.376;2022-07-04T01:54:51;10.30;;;2.60;;
39188;SDS011;24915;50.858;4.376;2022-07-04T01:57:17;8.88;;;2.50;;
39188;SDS011;24915;50.858;4.376;2022-07-04T01:59:42;9.00;;;1.90;;
39188;SDS011;24915;50.858;4.376;2022-07-04T02:04:52;7.25;;;2.03;;
39188;SDS011;24915;50.858;4.376;2022-07-04T02:07:18;10.13;;;2.28;;
39188;SDS011;24915;50.858;4.376;2022-07-04T02:09:44;4.15;;;1.73;;
39188;SDS011;24915;50.858;4.376;2022-07-04T02:12:09;4.55;;;1.90;;
39188;SDS011;24915;50.858;4.376;2022-07-04T02:14:54;10.70;;;2.00;;
39188;SDS011;24915;50.858;4.376;2022-07-04T02:17:20;5.53;;;2.08;;
39188;SDS011;24915;50.858;4.376;2022-07-04T02:19:46;6.78;;;2.10;;
39188;SDS011;24915;50.858;4.376;2022-07-04T02:22:13;3.67;;;1.70;;
39188;SDS011;24915;50.858;4.376;2022-07-04T02:24:39;4.70;;;1.70;;
39188;SDS011;24915;50.858;4.376;2022-07-04T02:27:05;5.30;;;1.50;;
39188;SDS011;24915;50.858;4.376;2022-07-04T02:29:31;8.70;;;2.00;;
39188;SDS011;24915;50.858;4.376;2022-07-04T02:31:57;5.68;;;1.70;;
39188;SDS011;24915;50.858;4.376;2022-07-04T02:34:22;5.40;;;1.70;;
39188;SDS011;24915;50.858;4.376;2022-07-04T02:36:48;9.02;;;2.40;;
39188;SDS011;24915;50.858;4.376;2022-07-04T02:39:14;7.28;;;1.88;;
39188;SDS011;24915;50.858;4.376;2022-07-04T02:41:40;5.40;;;2.40;;
39188;SDS011;24915;50.858;4.376;2022-07-04T02:44:06;4.70;;;1.58;;
39188;SDS011;24915;50.858;4.376;2022-07-04T02:46:32;3.72;;;2.10;;
39188;SDS011;24915;50.858;4.376;2022-07-04T02:48:58;8.05;;;2.05;;
39188;SDS011;24915;50.858;4.376;2022-07-04T02:51:24;6.10;;;1.85;;
39188;SDS011;24915;50.858;4.376;2022-07-04T02:53:50;6.13;;;2.08;;
39188;SDS011;24915;50.858;4.376;2022-07-04T02:56:16;5.10;;;2.00;;
39188;SDS011;24915;50.858;4.376;2022-07-04T02:58:42;4.38;;;2.25;;
39188;SDS011;24915;50.858;4.376;2022-07-04T03:01:07;6.55;;;2.30;;
39188;SDS011;24915;50.858;4.376;2022-07-04T03:03:33;5.35;;;2.00;;
39188;SDS011;24915;50.858;4.376;2022-07-04T03:05:59;4.03;;;1.95;;
39188;SDS011;24915;50.858;4.376;2022-07-04T03:08:25;10.50;;;2.17;;
39188;SDS011;24915;50.858;4.376;2022-07-04T03:10:51;3.83;;;1.80;;
39188;SDS011;24915;50.858;4.376;2022-07-04T03:13:17;2.72;;;1.60;;
39188;SDS011;24915;50.858;4.376;2022-07-04T03:15:44;10.63;;;2.00;;
39188;SDS011;24915;50.858;4.376;2022-07-04T03:18:11;5.60;;;2.25;;
39188;SDS011;24915;50.858;4.376;2022-07-04T03:20:36;6.03;;;1.90;;
39188;SDS011;24915;50.858;4.376;2022-07-04T03:23:02;7.50;;;1.90;;
39188;SDS011;24915;50.858;4.376;2022-07-04T03:25:28;5.07;;;2.05;;
39188;SDS011;24915;50.858;4.376;2022-07-04T03:27:54;6.78;;;2.00;;
39188;SDS011;24915;50.858;4.376;2022-07-04T03:30:20;3.72;;;1.98;;
39188;SDS011;24915;50.858;4.376;2022-07-04T03:32:46;4.75;;;1.58;;
39188;SDS011;24915;50.858;4.376;2022-07-04T03:35:11;5.70;;;1.88;;
39188;SDS011;24915;50.858;4.376;2022-07-04T03:37:37;5.55;;;1.55;;
39188;SDS011;24915;50.858;4.376;2022-07-04T03:40:03;5.88;;;1.92;;
39188;SDS011;24915;50.858;4.376;2022-07-04T03:42:29;5.40;;;1.52;;
39188;SDS011;24915;50.858;4.376;2022-07-04T03:44:55;6.30;;;1.90;;
39188;SDS011;24915;50.858;4.376;2022-07-04T03:47:21;2.60;;;1.60;;
39188;SDS011;24915;50.858;4.376;2022-07-04T03:49:47;8.05;;;1.60;;
39188;SDS011;24915;50.858;4.376;2022-07-04T03:52:13;4.88;;;1.60;;
39188;SDS011;24915;50.858;4.376;2022-07-04T03:54:39;4.75;;;1.60;;
39188;SDS011;24915;50.858;4.376;2022-07-04T03:57:05;9.27;;;2.13;;
39188;SDS011;24915;50.858;4.376;2022-07-04T03:59:30;4.78;;;1.98;;
39188;SDS011;24915;50.858;4.376;2022-07-04T04:01:56;5.07;;;1.75;;
39188;SDS011;24915;50.858;4.376;2022-07-04T04:04:22;10.32;;;2.53;;
39188;SDS011;24915;50.858;4.376;2022-07-04T04:07:06;5.32;;;1.92;;
39188;SDS011;24915;50.858;4.376;2022-07-04T04:09:32;6.55;;;2.03;;
39188;SDS011;24915;50.858;4.376;2022-07-04T04:11:57;7.03;;;1.70;;
39188;SDS011;24915;50.858;4.376;2022-07-04T04:14:23;9.10;;;2.00;;
39188;SDS011;24915;50.858;4.376;2022-07-04T04:16:49;4.95;;;1.90;;
39188;SDS011;24915;50.858;4.376;2022-07-04T04:19:15;8.70;;;2.15;;
39188;SDS011;24915;50.858;4.376;2022-07-04T04:21:41;6.93;;;2.30;;
39188;SDS011;24915;50.858;4.376;2022-07-04T04:24:07;8.40;;;2.00;;
39188;SDS011;24915;50.858;4.376;2022-07-04T04:26:33;4.68;;;1.58;;
39188;SDS011;24915;50.858;4.376;2022-07-04T04:28:59;11.27;;;2.00;;
39188;SDS011;24915;50.858;4.376;2022-07-04T04:31:26;7.18;;;1.60;;
39188;SDS011;24915;50.858;4.376;2022-07-04T04:33:51;5.72;;;1.88;;
39188;SDS011;24915;50.858;4.376;2022-07-04T04:36:17;5.78;;;1.70;;
39188;SDS011;24915;50.858;4.376;2022-07-04T04:38:42;7.45;;;1.73;;
39188;SDS011;24915;50.858;4.376;2022-07-04T04:41:08;4.93;;;1.50;;
39188;SDS011;24915;50.858;4.376;2022-07-04T04:43:34;7.72;;;2.05;;
39188;SDS011;24915;50.858;4.376;2022-07-04T04:46:00;10.57;;;2.53;;
39188;SDS011;24915;50.858;4.376;2022-07-04T04:48:25;9.38;;;1.95;;
39188;SDS011;24915;50.858;4.376;2022-07-04T04:50:51;5.90;;;2.00;;
39188;SDS011;24915;50.858;4.376;2022-07-04T04:53:17;6.03;;;1.92;;
39188;SDS011;24915;50.858;4.376;2022-07-04T04:55:43;11.23;;;2.20;;
39188;SDS011;24915;50.858;4.376;2022-07-04T04:58:09;6.40;;;1.73;;
39188;SDS011;24915;50.858;4.376;2022-07-04T05:00:35;8.77;;;2.80;;
39188;SDS011;24915;50.858;4.376;2022-07-04T05:03:01;5.15;;;1.75;;
39188;SDS011;24915;50.858;4.376;2022-07-04T05:05:26;7.32;;;2.10;;
39188;SDS011;24915;50.858;4.376;2022-07-04T05:07:52;6.85;;;2.22;;
39188;SDS011;24915;50.858;4.376;2022-07-04T05:10:17;6.18;;;2.10;;
39188;SDS011;24915;50.858;4.376;2022-07-04T05:12:43;8.45;;;1.92;;
39188;SDS011;24915;50.858;4.376;2022-07-04T05:15:09;6.57;;;1.58;;
39188;SDS011;24915;50.858;4.376;2022-07-04T05:17:35;4.25;;;1.98;;
39188;SDS011;24915;50.858;4.376;2022-07-04T05:20:01;7.10;;;2.00;;
39188;SDS011;24915;50.858;4.376;2022-07-04T05:22:27;7.93;;;2.28;;
39188;SDS011;24915;50.858;4.376;2022-07-04T05:24:53;10.23;;;3.03;;
39188;SDS011;24915;50.858;4.376;2022-07-04T05:27:19;6.05;;;2.25;;
39188;SDS011;24915;50.858;4.376;2022-07-04T05:29:45;8.23;;;2.40;;
39188;SDS011;24915;50.858;4.376;2022-07-04T05:32:10;11.93;;;2.10;;
39188;SDS011;24915;50.858;4.376;2022-07-04T05:34:36;8.05;;;2.13;;
39188;SDS011;24915;50.858;4.376;2022-07-04T05:37:02;5.40;;;1.55;;
39188;SDS011;24915;50.858;4.376;2022-07-04T05:39:29;6.35;;;1.88;;
39188;SDS011;24915;50.858;4.376;2022-07-04T05:41:54;10.40;;;2.10;;
39188;SDS011;24915;50.858;4.376;2022-07-04T05:44:20;5.10;;;2.00;;
39188;SDS011;24915;50.858;4.376;2022-07-04T05:46:46;6.72;;;2.20;;
39188;SDS011;24915;50.858;4.376;2022-07-04T05:49:12;8.43;;;2.22;;
39188;SDS011;24915;50.858;4.376;2022-07-04T05:51:37;8.52;;;2.47;;
39188;SDS011;24915;50.858;4.376;2022-07-04T05:54:03;7.10;;;2.30;;
39188;SDS011;24915;50.858;4.376;2022-07-04T05:56:29;12.20;;;2.88;;
39188;SDS011;24915;50.858;4.376;2022-07-04T05:58:55;7.63;;;2.63;;
39188;SDS011;24915;50.858;4.376;2022-07-04T06:01:21;10.15;;;2.40;;
39188;SDS011;24915;50.858;4.376;2022-07-04T06:03:46;9.30;;;2.40;;
39188;SDS011;24915;50.858;4.376;2022-07-04T06:06:12;13.52;;;3.13;;
39188;SDS011;24915;50.858;4.376;2022-07-04T06:08:38;12.65;;;2.92;;
39188;SDS011;24915;50.858;4.376;2022-07-04T06:11:04;9.90;;;2.58;;
39188;SDS011;24915;50.858;4.376;2022-07-04T06:13:29;12.18;;;2.90;;
39188;SDS011;24915;50.858;4.376;2022-07-04T06:15:55;13.02;;;2.95;;
39188;SDS011;24915;50.858;4.376;2022-07-04T06:18:21;10.95;;;2.35;;
39188;SDS011;24915;50.858;4.376;2022-07-04T06:20:46;14.07;;;3.33;;
39188;SDS011;24915;50.858;4.376;2022-07-04T06:23:12;13.07;;;2.95;;
39188;SDS011;24915;50.858;4.376;2022-07-04T06:25:38;9.95;;;2.60;;
39188;SDS011;24915;50.858;4.376;2022-07-04T06:28:03;10.20;;;2.55;;
39188;SDS011;24915;50.858;4.376;2022-07-04T06:30:29;7.97;;;2.88;;
39188;SDS011;24915;50.858;4.376;2022-07-04T06:32:56;13.23;;;3.17;;
39188;SDS011;24915;50.858;4.376;2022-07-04T06:35:23;12.75;;;2.83;;
39188;SDS011;24915;50.858;4.376;2022-07-04T06:38:09;7.38;;;2.38;;
39188;SDS011;24915;50.858;4.376;2022-07-04T06:40:35;13.43;;;2.95;;
39188;SDS011;24915;50.858;4.376;2022-07-04T06:43:02;12.73;;;3.38;;
39188;SDS011;24915;50.858;4.376;2022-07-04T06:45:29;11.20;;;2.85;;
39188;SDS011;24915;50.858;4.376;2022-07-04T06:47:55;8.35;;;2.65;;
39188;SDS011;24915;50.858;4.376;2022-07-04T06:50:21;15.38;;;2.70;;
39188;SDS011;24915;50.858;4.376;2022-07-04T06:52:46;12.77;;;2.83;;
39188;SDS011;24915;50.858;4.376;2022-07-04T06:55:12;14.30;;;3.08;;
39188;SDS011;24915;50.858;4.376;2022-07-04T06:57:39;15.68;;;3.28;;
39188;SDS011;24915;50.858;4.376;2022-07-04T07:00:07;6.20;;;2.33;;
39188;SDS011;24915;50.858;4.376;2022-07-04T07:02:33;11.02;;;2.38;;
39188;SDS011;24915;50.858;4.376;2022-07-04T07:05:00;15.93;;;2.78;;
39188;SDS011;24915;50.858;4.376;2022-07-04T07:07:27;9.77;;;2.60;;
39188;SDS011;24915;50.858;4.376;2022-07-04T07:09:53;9.35;;;2.63;;
39188;SDS011;24915;50.858;4.376;2022-07-04T07:12:19;12.77;;;2.78;;
39188;SDS011;24915;50.858;4.376;2022-07-04T07:14:47;7.63;;;2.60;;
39188;SDS011;24915;50.858;4.376;2022-07-04T07:17:13;10.15;;;2.63;;
39188;SDS011;24915;50.858;4.376;2022-07-04T07:19:40;6.95;;;2.10;;
39188;SDS011;24915;50.858;4.376;2022-07-04T07:22:07;9.45;;;2.45;;
39188;SDS011;24915;50.858;4.376;2022-07-04T07:24:33;7.53;;;1.90;;
39188;SDS011;24915;50.858;4.376;2022-07-04T07:26:59;13.88;;;2.55;;
39188;SDS011;24915;50.858;4.376;2022-07-04T07:29:25;7.93;;;2.05;;
39188;SDS011;24915;50.858;4.376;2022-07-04T07:31:51;7.85;;;2.00;;
39188;SDS011;24915;50.858;4.376;2022-07-04T07:34:17;4.70;;;1.90;;
39188;SDS011;24915;50.858;4.376;2022-07-04T07:36:42;6.95;;;1.77;;
39188;SDS011;24915;50.858;4.376;2022-07-04T07:39:08;7.00;;;1.77;;
39188;SDS011;24915;50.858;4.376;2022-07-04T07:41:34;11.80;;;1.85;;
39188;SDS011;24915;50.858;4.376;2022-07-04T07:43:59;12.95;;;1.75;;
39188;SDS011;24915;50.858;4.376;2022-07-04T07:46:25;5.28;;;1.35;;
39188;SDS011;24915;50.858;4.376;2022-07-04T07:48:51;7.18;;;1.30;;
39188;SDS011;24915;50.858;4.376;2022-07-04T07:51:17;9.27;;;1.92;;
39188;SDS011;24915;50.858;4.376;2022-07-04T07:53:42;8.25;;;1.30;;
39188;SDS011;24915;50.858;4.376;2022-07-04T07:56:09;7.60;;;2.03;;
39188;SDS011;24915;50.858;4.376;2022-07-04T07:58:34;6.47;;;1.58;;
39188;SDS011;24915;50.858;4.376;2022-07-04T08:01:00;5.65;;;1.23;;
39188;SDS011;24915;50.858;4.376;2022-07-04T08:03:27;7.88;;;1.73;;
39188;SDS011;24915;50.858;4.376;2022-07-04T08:06:12;7.18;;;1.40;;
39188;SDS011;24915;50.858;4.376;2022-07-04T08:08:38;10.40;;;1.70;;
39188;SDS011;24915;50.858;4.376;2022-07-04T08:11:04;4.65;;;1.58;;
39188;SDS011;24915;50.858;4.376;2022-07-04T08:13:30;11.20;;;1.83;;
39188;SDS011;24915;50.858;4.376;2022-07-04T08:15:56;9.75;;;1.35;;
39188;SDS011;24915;50.858;4.376;2022-07-04T08:18:22;11.27;;;2.03;;
39188;SDS011;24915;50.858;4.376;2022-07-04T08:20:48;13.18;;;1.70;;
39188;SDS011;24915;50.858;4.376;2022-07-04T08:23:15;8.32;;;1.40;;
39188;SDS011;24915;50.858;4.376;2022-07-04T08:25:41;7.47;;;1.42;;
39188;SDS011;24915;50.858;4.376;2022-07-04T08:28:06;4.22;;;1.27;;
39188;SDS011;24915;50.858;4.376;2022-07-04T08:30:32;6.50;;;1.90;;
39188;SDS011;24915;50.858;4.376;2022-07-04T08:32:58;11.75;;;1.70;;
39188;SDS011;24915;50.858;4.376;2022-07-04T08:35:24;5.75;;;1.23;;
39188;SDS011;24915;50.858;4.376;2022-07-04T08:37:50;8.50;;;1.42;;
39188;SDS011;24915;50.858;4.376;2022-07-04T08:40:27;6.35;;;1.48;;
39188;SDS011;24915;50.858;4.376;2022-07-04T08:42:55;5.13;;;1.23;;
39188;SDS011;24915;50.858;4.376;2022-07-04T08:45:28;8.93;;;1.95;;
39188;SDS011;24915;50.858;4.376;2022-07-04T08:50:26;6.80;;;1.67;;
39188;SDS011;24915;50.858;4.376;2022-07-04T08:55:25;5.85;;;1.92;;
39188;SDS011;24915;50.858;4.376;2022-07-04T08:58:11;7.57;;;1.50;;
39188;SDS011;24915;50.858;4.376;2022-07-04T09:00:56;7.00;;;1.45;;
39188;SDS011;24915;50.858;4.376;2022-07-04T09:03:24;8.80;;;1.70;;
39188;SDS011;24915;50.858;4.376;2022-07-04T09:05:51;10.77;;;1.60;;
39188;SDS011;24915;50.858;4.376;2022-07-04T09:08:17;7.78;;;1.88;;
39188;SDS011;24915;50.858;4.376;2022-07-04T09:10:43;5.78;;;1.70;;
39188;SDS011;24915;50.858;4.376;2022-07-04T09:13:10;9.05;;;1.90;;
39188;SDS011;24915;50.858;4.376;2022-07-04T09:15:36;5.95;;;1.80;;
39188;SDS011;24915;50.858;4.376;2022-07-04T09:18:03;3.22;;;1.40;;
39188;SDS011;24915;50.858;4.376;2022-07-04T09:20:30;5.18;;;1.83;;
39188;SDS011;24915;50.858;4.376;2022-07-04T09:22:58;7.53;;;1.40;;
39188;SDS011;24915;50.858;4.376;2022-07-04T09:25:24;5.72;;;1.40;;
39188;SDS011;24915;50.858;4.376;2022-07-04T09:27:51;5.20;;;1.30;;
39188;SDS011;24915;50.858;4.376;2022-07-04T09:30:19;6.72;;;1.45;;
39188;SDS011;24915;50.858;4.376;2022-07-04T09:32:51;9.50;;;2.08;;
39188;SDS011;24915;50.858;4.376;2022-07-04T09:35:23;4.93;;;1.35;;
39188;SDS011;24915;50.858;4.376;2022-07-04T09:37:51;7.35;;;1.25;;
39188;SDS011;24915;50.858;4.376;2022-07-04T09:42:49;4.50;;;1.90;;
39188;SDS011;24915;50.858;4.376;2022-07-04T09:45:15;4.25;;;1.42;;
39188;SDS011;24915;50.858;4.376;2022-07-04T09:47:41;9.20;;;2.40;;
39188;SDS011;24915;50.858;4.376;2022-07-04T09:50:10;4.35;;;2.00;;
39188;SDS011;24915;50.858;4.376;2022-07-04T09:57:59;6.88;;;2.20;;
39188;SDS011;24915;50.858;4.376;2022-07-04T10:00:27;7.45;;;1.55;;
39188;SDS011;24915;50.858;4.376;2022-07-04T10:02:56;4.97;;;2.03;;
39188;SDS011;24915;50.858;4.376;2022-07-04T10:05:39;5.28;;;2.03;;
39188;SDS011;24915;50.858;4.376;2022-07-04T10:08:05;4.80;;;1.65;;
39188;SDS011;24915;50.858;4.376;2022-07-04T10:10:32;5.05;;;1.50;;
39188;SDS011;24915;50.858;4.376;2022-07-04T10:13:00;3.08;;;1.50;;
39188;SDS011;24915;50.858;4.376;2022-07-04T10:15:28;4.45;;;1.40;;
39188;SDS011;24915;50.858;4.376;2022-07-04T10:17:54;2.88;;;1.20;;
39188;SDS011;24915;50.858;4.376;2022-07-04T10:20:20;6.25;;;1.10;;
39188;SDS011;24915;50.858;4.376;2022-07-04T10:22:46;3.90;;;1.20;;
39188;SDS011;24915;50.858;4.376;2022-07-04T10:25:12;4.32;;;1.60;;
39188;SDS011;24915;50.858;4.376;2022-07-04T10:27:38;3.55;;;1.20;;
39188;SDS011;24915;50.858;4.376;2022-07-04T10:30:05;3.63;;;1.30;;
39188;SDS011;24915;50.858;4.376;2022-07-04T10:32:34;4.22;;;1.48;;
39188;SDS011;24915;50.858;4.376;2022-07-04T10:35:01;4.97;;;1.50;;
39188;SDS011;24915;50.858;4.376;2022-07-04T10:45:56;6.10;;;1.38;;
39188;SDS011;24915;50.858;4.376;2022-07-04T10:48:24;3.10;;;1.30;;
39188;SDS011;24915;50.858;4.376;2022-07-04T10:50:59;5.70;;;1.50;;
39188;SDS011;24915;50.858;4.376;2022-07-04T10:53:27;3.00;;;1.23;;
39188;SDS011;24915;50.858;4.376;2022-07-04T10:55:53;2.55;;;1.33;;
39188;SDS011;24915;50.858;4.376;2022-07-04T11:01:15;4.72;;;1.60;;
39188;SDS011;24915;50.858;4.376;2022-07-04T11:03:46;3.80;;;1.10;;
39188;SDS011;24915;50.858;4.376;2022-07-04T11:11:51;6.63;;;1.83;;
39188;SDS011;24915;50.858;4.376;2022-07-04T11:14:29;3.00;;;1.80;;
39188;SDS011;24915;50.858;4.376;2022-07-04T11:17:36;2.25;;;1.25;;
39188;SDS011;24915;50.858;4.376;2022-07-04T11:20:05;5.20;;;1.93;;
39188;SDS011;24915;50.858;4.376;2022-07-04T11:22:32;2.67;;;1.20;;
39188;SDS011;24915;50.858;4.376;2022-07-04T11:24:59;2.63;;;1.27;;
39188;SDS011;24915;50.858;4.376;2022-07-04T11:27:25;3.15;;;1.25;;
39188;SDS011;24915;50.858;4.376;2022-07-04T11:29:51;5.45;;;1.50;;
39188;SDS011;24915;50.858;4.376;2022-07-04T11:32:18;3.17;;;1.15;;
39188;SDS011;24915;50.858;4.376;2022-07-04T11:34:44;6.55;;;1.20;;
39188;SDS011;24915;50.858;4.376;2022-07-04T11:37:11;3.92;;;1.52;;
39188;SDS011;24915;50.858;4.376;2022-07-04T11:39:38;3.30;;;1.60;;
39188;SDS011;24915;50.858;4.376;2022-07-04T11:42:04;4.25;;;1.20;;
39188;SDS011;24915;50.858;4.376;2022-07-04T11:44:48;5.55;;;1.55;;
39188;SDS011;24915;50.858;4.376;2022-07-04T11:49:48;5.05;;;2.03;;
39188;SDS011;24915;50.858;4.376;2022-07-04T11:52:19;2.85;;;1.42;;
39188;SDS011;24915;50.858;4.376;2022-07-04T11:54:46;4.80;;;1.63;;
39188;SDS011;24915;50.858;4.376;2022-07-04T11:57:14;3.75;;;1.73;;
39188;SDS011;24915;50.858;4.376;2022-07-04T11:59:48;2.58;;;1.40;;
39188;SDS011;24915;50.858;4.376;2022-07-04T12:02:21;4.10;;;1.10;;
39188;SDS011;24915;50.858;4.376;2022-07-04T12:04:47;6.00;;;1.60;;
39188;SDS011;24915;50.858;4.376;2022-07-04T12:07:17;2.80;;;1.10;;
39188;SDS011;24915;50.858;4.376;2022-07-04T12:09:44;4.85;;;2.30;;
39188;SDS011;24915;50.858;4.376;2022-07-04T12:12:12;2.63;;;1.92;;
39188;SDS011;24915;50.858;4.376;2022-07-04T12:14:40;6.18;;;2.20;;
39188;SDS011;24915;50.858;4.376;2022-07-04T12:17:21;5.05;;;1.73;;
39188;SDS011;24915;50.858;4.376;2022-07-04T12:20:29;3.58;;;1.95;;
39188;SDS011;24915;50.858;4.376;2022-07-04T12:22:43;4.05;;;1.45;;
39188;SDS011;24915;50.858;4.376;2022-07-04T12:28:02;3.58;;;1.30;;
39188;SDS011;24915;50.858;4.376;2022-07-04T12:30:30;7.57;;;2.13;;
39188;SDS011;24915;50.858;4.376;2022-07-04T12:32:58;3.72;;;1.30;;
39188;SDS011;24915;50.858;4.376;2022-07-04T12:35:32;2.72;;;1.70;;
39188;SDS011;24915;50.858;4.376;2022-07-04T12:40:49;6.97;;;3.75;;
39188;SDS011;24915;50.858;4.376;2022-07-04T12:48:36;6.20;;;2.90;;
39188;SDS011;24915;50.858;4.376;2022-07-04T12:51:20;2.35;;;1.55;;
39188;SDS011;24915;50.858;4.376;2022-07-04T12:53:46;3.10;;;1.67;;
39188;SDS011;24915;50.858;4.376;2022-07-04T12:59:03;6.65;;;2.42;;
39188;SDS011;24915;50.858;4.376;2022-07-04T13:01:30;2.53;;;1.13;;
39188;SDS011;24915;50.858;4.376;2022-07-04T13:03:56;2.20;;;1.42;;
39188;SDS011;24915;50.858;4.376;2022-07-04T13:06:23;6.95;;;1.38;;
39188;SDS011;24915;50.858;4.376;2022-07-04T13:08:49;2.63;;;1.45;;
39188;SDS011;24915;50.858;4.376;2022-07-04T13:11:15;2.63;;;1.05;;
39188;SDS011;24915;50.858;4.376;2022-07-04T13:13:59;3.90;;;1.05;;
39188;SDS011;24915;50.858;4.376;2022-07-04T13:16:25;2.28;;;1.05;;
39188;SDS011;24915;50.858;4.376;2022-07-04T13:18:50;3.47;;;1.00;;
39188;SDS011;24915;50.858;4.376;2022-07-04T13:21:16;4.60;;;0.90;;
39188;SDS011;24915;50.858;4.376;2022-07-04T13:23:42;2.90;;;1.02;;
39188;SDS011;24915;50.858;4.376;2022-07-04T13:26:08;1.83;;;1.10;;
39188;SDS011;24915;50.858;4.376;2022-07-04T13:28:34;3.05;;;1.33;;
39188;SDS011;24915;50.858;4.376;2022-07-04T13:31:00;4.18;;;1.10;;
39188;SDS011;24915;50.858;4.376;2022-07-04T13:33:26;3.45;;;1.40;;
39188;SDS011;24915;50.858;4.376;2022-07-04T13:35:52;3.38;;;0.88;;
39188;SDS011;24915;50.858;4.376;2022-07-04T13:38:18;4.15;;;1.23;;
39188;SDS011;24915;50.858;4.376;2022-07-04T13:40:44;2.88;;;1.30;;
39188;SDS011;24915;50.858;4.376;2022-07-04T13:43:11;4.93;;;2.38;;
39188;SDS011;24915;50.858;4.376;2022-07-04T13:45:37;2.35;;;1.23;;
39188;SDS011;24915;50.858;4.376;2022-07-04T13:48:05;5.28;;;1.45;;
39188;SDS011;24915;50.858;4.376;2022-07-04T13:50:31;5.95;;;1.08;;
39188;SDS011;24915;50.858;4.376;2022-07-04T13:52:57;6.47;;;1.95;;
39188;SDS011;24915;50.858;4.376;2022-07-04T13:55:23;3.25;;;1.10;;
39188;SDS011;24915;50.858;4.376;2022-07-04T13:57:48;4.18;;;1.30;;
39188;SDS011;24915;50.858;4.376;2022-07-04T14:00:14;3.13;;;1.20;;
39188;SDS011;24915;50.858;4.376;2022-07-04T14:02:40;3.95;;;1.35;;
39188;SDS011;24915;50.858;4.376;2022-07-04T14:05:06;4.47;;;1.23;;
39188;SDS011;24915;50.858;4.376;2022-07-04T14:07:32;5.38;;;1.52;;
39188;SDS011;24915;50.858;4.376;2022-07-04T14:09:59;4.43;;;1.38;;
39188;SDS011;24915;50.858;4.376;2022-07-04T14:12:25;5.90;;;1.23;;
39188;SDS011;24915;50.858;4.376;2022-07-04T14:14:51;4.47;;;1.40;;
39188;SDS011;24915;50.858;4.376;2022-07-04T14:17:16;3.38;;;1.63;;
39188;SDS011;24915;50.858;4.376;2022-07-04T14:19:42;3.97;;;1.20;;
39188;SDS011;24915;50.858;4.376;2022-07-04T14:22:08;8.52;;;1.95;;
39188;SDS011;24915;50.858;4.376;2022-07-04T14:24:34;4.60;;;1.42;;
39188;SDS011;24915;50.858;4.376;2022-07-04T14:26:59;4.13;;;1.40;;
39188;SDS011;24915;50.858;4.376;2022-07-04T14:29:25;5.70;;;1.10;;
39188;SDS011;24915;50.858;4.376;2022-07-04T14:31:50;3.70;;;1.30;;
39188;SDS011;24915;50.858;4.376;2022-07-04T14:34:17;5.07;;;1.00;;
39188;SDS011;24915;50.858;4.376;2022-07-04T14:36:43;4.80;;;1.10;;
39188;SDS011;24915;50.858;4.376;2022-07-04T14:39:08;5.28;;;1.40;;
39188;SDS011;24915;50.858;4.376;2022-07-04T14:41:34;4.35;;;1.48;;
39188;SDS011;24915;50.858;4.376;2022-07-04T14:44:00;5.30;;;1.17;;
39188;SDS011;24915;50.858;4.376;2022-07-04T14:46:26;4.65;;;1.33;;
39188;SDS011;24915;50.858;4.376;2022-07-04T14:48:52;2.63;;;1.40;;
39188;SDS011;24915;50.858;4.376;2022-07-04T14:51:18;3.80;;;1.42;;
39188;SDS011;24915;50.858;4.376;2022-07-04T14:53:43;5.32;;;2.30;;
39188;SDS011;24915;50.858;4.376;2022-07-04T14:56:09;4.03;;;1.50;;
39188;SDS011;24915;50.858;4.376;2022-07-04T14:58:35;6.40;;;1.17;;
39188;SDS011;24915;50.858;4.376;2022-07-04T15:01:01;3.78;;;1.35;;
39188;SDS011;24915;50.858;4.376;2022-07-04T15:03:27;3.42;;;1.25;;
39188;SDS011;24915;50.858;4.376;2022-07-04T15:05:52;4.22;;;1.60;;
39188;SDS011;24915;50.858;4.376;2022-07-04T15:08:18;2.35;;;1.20;;
39188;SDS011;24915;50.858;4.376;2022-07-04T15:10:44;6.68;;;1.48;;
39188;SDS011;24915;50.858;4.376;2022-07-04T15:13:09;3.28;;;1.77;;
39188;SDS011;24915;50.858;4.376;2022-07-04T15:15:35;3.08;;;1.25;;
39188;SDS011;24915;50.858;4.376;2022-07-04T15:18:01;2.80;;;1.70;;
39188;SDS011;24915;50.858;4.376;2022-07-04T15:20:27;4.00;;;1.00;;
39188;SDS011;24915;50.858;4.376;2022-07-04T15:23:11;3.42;;;1.20;;
39188;SDS011;24915;50.858;4.376;2022-07-04T15:25:56;4.07;;;1.58;;
39188;SDS011;24915;50.858;4.376;2022-07-04T15:28:22;2.75;;;1.45;;
39188;SDS011;24915;50.858;4.376;2022-07-04T15:30:47;4.80;;;1.10;;
39188;SDS011;24915;50.858;4.376;2022-07-04T15:33:13;4.32;;;1.90;;